Time;durP1;ratioP1;P1;durP2;ratioP2;P2;SDS_P1;SDS_P2;PMS_P1;PMS_P2;Temp;Humidity;BMP_temperature;BMP_pressure;BME280_temperature;BME280_humidity;BME280_pressure;Samples;Min_cycle;Max_cycle;Signal;HPM_P1;HPM_P2
2022/07/25 00:00:30;;;;;;;8.60;4.80;;;;;;;22.97;68.35;101057.72;5095418;28;20044;-36
2022/07/25 00:02:56;;;;;;;6.75;4.80;;;;;;;22.93;68.72;101049.22;5095811;28;20054;-36
2022/07/25 00:05:21;;;;;;;7.93;4.82;;;;;;;23.01;67.84;101045.75;5095578;28;20026;-36
2022/07/25 00:07:47;;;;;;;6.57;5.05;;;;;;;;;;5095573;28;20423;-36
2022/07/25 00:10:12;;;;;;;6.35;4.82;;;;;;;22.92;67.67;101036.59;5095730;28;20062;-36
2022/07/25 00:12:38;;;;;;;7.32;4.60;;;;;;;22.90;68.16;101032.50;5096142;28;20055;-36
2022/07/25 00:15:05;;;;;;;6.32;5.47;;;;;;;22.82;68.09;101040.34;5095270;28;20509;-36
2022/07/25 00:17:31;;;;;;;6.32;4.85;;;;;;;22.77;67.46;101032.19;5096388;28;20310;-36
2022/07/25 00:19:56;;;;;;;5.60;5.10;;;;;;;22.74;68.64;101026.47;5094727;28;20036;-36
2022/07/25 00:22:21;;;;;;;6.10;5.18;;;;;;;22.77;69.18;101032.19;5095465;28;20067;-36
2022/07/25 00:24:47;;;;;;;7.13;5.20;;;;;;;22.81;68.98;101027.69;5095182;28;20035;-36
2022/07/25 00:27:12;;;;;;;7.00;5.00;;;;;;;22.56;69.42;100997.91;5095917;28;20032;-36
2022/07/25 00:29:37;;;;;;;5.90;5.30;;;;;;;22.52;69.90;101008.72;5094954;28;20031;-36
2022/07/25 00:32:03;;;;;;;8.88;6.35;;;;;;;22.60;69.19;101016.28;5095187;28;20479;-36
2022/07/25 00:34:28;;;;;;;5.50;4.93;;;;;;;22.52;70.39;101013.44;5095066;28;20110;-36
2022/07/25 00:36:54;;;;;;;8.77;5.53;;;;;;;22.49;70.01;101014.03;5095023;28;20062;-36
2022/07/25 00:39:19;;;;;;;6.03;5.22;;;;;;;22.44;69.56;101009.44;5095163;28;20028;-36
2022/07/25 00:41:44;;;;;;;5.95;5.13;;;;;;;22.35;70.15;100992.84;5094689;28;20465;-36
2022/07/25 00:44:21;;;;;;;7.28;5.38;;;;;;;22.34;70.16;100987.59;5094985;28;20032;-36
2022/07/25 00:46:47;;;;;;;9.07;5.63;;;;;;;22.35;71.03;100995.59;5094866;28;20031;-36
2022/07/25 00:49:12;;;;;;;6.40;5.40;;;;;;;22.33;70.86;100995.06;5094800;28;20020;-36
2022/07/25 00:51:37;;;;;;;5.90;5.32;;;;;;;22.39;70.42;100975.66;5094782;28;20035;-36
2022/07/25 00:54:03;;;;;;;7.57;6.45;;;;;;;22.29;70.76;100983.00;5092810;28;20032;-36
2022/07/25 00:56:29;;;;;;;8.15;5.88;;;;;;;22.15;70.69;100981.38;5094654;28;20085;-36
2022/07/25 00:58:54;;;;;;;9.30;6.38;;;;;;;22.23;70.45;100981.50;5094741;28;20024;-36
2022/07/25 01:01:19;;;;;;;7.47;6.10;;;;;;;22.23;70.99;100978.75;5095134;28;20036;-36
2022/07/25 01:03:45;;;;;;;9.43;6.13;;;;;;;22.29;70.12;100982.22;5094481;28;20109;-36
2022/07/25 01:06:10;;;;;;;6.13;5.53;;;;;;;22.14;70.68;100968.75;5094646;28;20526;-36
2022/07/25 01:08:36;;;;;;;7.50;5.68;;;;;;;22.16;70.92;100972.84;5094466;28;20032;-36
2022/07/25 01:11:02;;;;;;;7.57;6.20;;;;;;;22.18;70.17;100970.59;5094257;28;20020;-36
2022/07/25 01:13:27;;;;;;;5.90;5.20;;;;;;;22.24;71.45;100971.28;5094314;28;20111;-36
2022/07/25 01:15:52;;;;;;;7.85;6.45;;;;;;;22.14;70.04;100963.22;5094241;28;20472;-36
2022/07/25 01:18:17;;;;;;;6.70;5.80;;;;;;;22.10;70.53;100961.06;5093952;28;20123;-36
2022/07/25 01:20:43;;;;;;;9.20;6.18;;;;;;;22.10;70.86;100958.28;5094122;28;20115;-36
2022/07/25 01:23:08;;;;;;;8.30;6.60;;;;;;;22.11;70.39;100950.91;5094336;28;20044;-37
2022/07/25 01:25:34;;;;;;;7.07;6.05;;;;;;;22.01;70.55;100946.38;5094048;28;20131;-36
2022/07/25 01:27:59;;;;;;;9.18;6.20;;;;;;;22.13;70.92;100953.34;5094079;28;20074;-36
2022/07/25 01:30:24;;;;;;;7.68;6.10;;;;;;;21.98;71.33;100943.41;5093675;28;20112;-36
2022/07/25 01:32:50;;;;;;;7.57;6.22;;;;;;;22.07;70.56;100939.66;5093427;28;20048;-36
2022/07/25 01:35:16;;;;;;;7.03;6.18;;;;;;;21.98;71.27;100941.47;5093883;28;20020;-36
2022/07/25 01:37:41;;;;;;;8.90;6.10;;;;;;;21.98;70.29;100933.22;5094044;28;20047;-36
2022/07/25 01:40:07;;;;;;;7.00;6.30;;;;;;;21.81;71.02;100928.31;5093851;28;20484;-36
2022/07/25 01:42:33;;;;;;;7.10;6.20;;;;;;;21.89;71.26;100937.78;5094253;28;20072;-36
2022/07/25 01:44:59;;;;;;;9.10;6.00;;;;;;;21.98;71.00;100930.47;5093752;28;20052;-36
2022/07/25 01:47:25;;;;;;;7.00;6.10;;;;;;;21.88;71.58;100927.09;5093687;28;20028;-36
2022/07/25 01:49:50;;;;;;;7.93;5.93;;;;;;;21.89;70.95;100925.97;5093663;28;20035;-36
2022/07/25 01:52:16;;;;;;;6.63;5.45;;;;;;;21.85;71.40;100912.00;5093271;28;20188;-36
2022/07/25 01:54:41;;;;;;;7.30;6.57;;;;;;;21.75;71.18;100907.50;5094122;28;20066;-36
2022/07/25 01:57:07;;;;;;;10.13;5.90;;;;;;;21.84;71.60;100916.69;5094334;28;20024;-36
2022/07/25 01:59:37;;;;;;;9.15;5.68;;;;;;;21.73;71.08;100909.75;5093703;28;20055;-36
2022/07/25 02:02:03;;;;;;;6.70;5.88;;;;;;;21.77;69.98;100910.78;5093742;28;20094;-36
2022/07/25 02:04:29;;;;;;;7.70;5.90;;;;;;;21.77;71.05;100905.28;5093100;28;20032;-36
2022/07/25 02:06:54;;;;;;;7.88;5.65;;;;;;;21.75;71.48;100907.50;5093887;28;20036;-36
2022/07/25 02:09:20;;;;;;;6.72;5.60;;;;;;;21.87;70.67;100896.00;5093011;28;20058;-36
2022/07/25 02:11:45;;;;;;;8.63;6.18;;;;;;;21.78;71.16;100897.84;5093463;28;20050;-36
2022/07/25 02:14:10;;;;;;;7.93;6.22;;;;;;;21.83;70.50;100895.78;5093160;28;20028;-36
2022/07/25 02:16:35;;;;;;;6.68;5.95;;;;;;;21.74;70.69;100889.38;5093475;28;20073;-36
2022/07/25 02:19:01;;;;;;;6.72;5.75;;;;;;;21.77;72.12;100896.22;5093106;28;20055;-36
2022/07/25 02:21:26;;;;;;;6.25;5.65;;;;;;;21.76;70.05;100903.63;5093783;28;20055;-36
2022/07/25 02:23:52;;;;;;;7.25;5.60;;;;;;;21.70;71.67;100893.03;5093865;28;20028;-36
2022/07/25 02:26:17;;;;;;;8.55;6.32;;;;;;;21.70;70.54;100896.59;5093599;28;20426;-36
2022/07/25 02:28:42;;;;;;;6.97;5.65;;;;;;;21.63;70.71;100890.69;5092691;28;20086;-36
2022/07/25 02:31:08;;;;;;;7.20;5.68;;;;;;;21.62;70.74;100891.81;5092741;28;20116;-36
2022/07/25 02:33:34;;;;;;;5.95;5.40;;;;;;;21.56;70.27;100893.00;5093006;28;20396;-36
2022/07/25 02:35:59;;;;;;;7.00;5.55;;;;;;;21.56;70.95;100882.81;5092023;28;20055;-36
2022/07/25 02:38:25;;;;;;;6.72;5.90;;;;;;;21.40;70.99;100869.66;5092916;28;20472;-36
2022/07/25 02:40:51;;;;;;;6.60;5.70;;;;;;;21.49;70.55;100878.84;5093251;28;20115;-36
2022/07/25 02:43:17;;;;;;;7.00;5.65;;;;;;;21.40;71.19;100877.91;5092805;28;20367;-36
2022/07/25 02:45:43;;;;;;;6.05;5.53;;;;;;;21.46;71.34;100882.19;5092473;28;20540;-36
2022/07/25 02:48:09;;;;;;;6.15;5.55;;;;;;;21.42;71.50;100878.41;5093288;28;20123;-36
2022/07/25 02:50:35;;;;;;;8.25;6.13;;;;;;;21.36;71.02;100871.38;5092931;28;20034;-36
2022/07/25 02:53:01;;;;;;;7.07;5.45;;;;;;;21.32;72.59;100869.22;5092543;28;20066;-36
2022/07/25 02:55:27;;;;;;;7.85;6.20;;;;;;;21.26;72.30;100864.09;5092752;28;20452;-36
2022/07/25 02:57:52;;;;;;;6.28;5.35;;;;;;;21.34;71.92;100863.44;5093294;28;20039;-36
2022/07/25 03:00:18;;;;;;;7.15;5.68;;;;;;;21.27;72.50;100865.72;5092583;28;20051;-36
2022/07/25 03:02:43;;;;;;;7.22;5.95;;;;;;;21.26;72.21;100862.16;5093147;28;20028;-36
2022/07/25 03:05:13;;;;;;;7.65;5.30;;;;;;;21.28;72.67;100865.44;5092686;28;20035;-36
2022/07/25 03:07:38;;;;;;;5.80;5.20;;;;;;;21.17;72.57;100855.72;5092417;28;20516;-36
2022/07/25 03:10:06;;;;;;;6.93;5.68;;;;;;;21.14;72.00;100847.28;5092924;28;20150;-36
2022/07/25 03:12:32;;;;;;;6.13;5.53;;;;;;;21.19;71.73;100855.44;5093162;28;20093;-36
2022/07/25 03:14:58;;;;;;;7.32;5.35;;;;;;;21.15;71.77;100844.22;5092788;28;20103;-36
2022/07/25 03:17:23;;;;;;;6.85;5.95;;;;;;;21.07;73.26;100831.97;5093246;28;20460;-36
2022/07/25 03:19:49;;;;;;;6.40;5.80;;;;;;;21.16;72.60;100832.09;5092306;28;20127;-36
2022/07/25 03:22:14;;;;;;;5.93;5.35;;;;;;;21.13;73.08;100815.38;5093096;28;20090;-36
2022/07/25 03:24:40;;;;;;;6.63;5.55;;;;;;;21.13;72.29;100831.88;5092279;28;20035;-36
2022/07/25 03:27:05;;;;;;;5.93;5.30;;;;;;;21.11;73.21;100823.94;5092754;28;20039;-36
2022/07/25 03:29:30;;;;;;;7.70;5.97;;;;;;;21.02;72.69;100828.47;5092668;28;20054;-36
2022/07/25 03:31:56;;;;;;;8.25;5.97;;;;;;;21.05;72.94;100830.63;5092192;28;20067;-36
2022/07/25 03:34:21;;;;;;;6.72;5.63;;;;;;;21.11;72.06;100840.44;5093187;28;20028;-36
2022/07/25 03:36:46;;;;;;;5.63;5.13;;;;;;;20.97;71.95;100832.13;5092674;28;20032;-36
2022/07/25 03:39:13;;;;;;;6.03;5.40;;;;;;;21.03;71.73;100849.34;5092368;28;20020;-36
2022/07/25 03:41:38;;;;;;;8.15;5.57;;;;;;;20.94;72.83;100831.94;5092548;28;20024;-36
2022/07/25 03:44:04;;;;;;;6.63;5.95;;;;;;;21.03;72.80;100846.59;5092268;28;20016;-36
2022/07/25 03:46:29;;;;;;;9.80;5.70;;;;;;;21.02;72.38;100847.72;5092920;28;20043;-36
2022/07/25 03:48:54;;;;;;;7.13;5.55;;;;;;;21.01;72.17;100835.09;5092266;28;20073;-36
2022/07/25 03:51:20;;;;;;;6.80;6.10;;;;;;;20.95;72.39;100836.31;5092589;28;20032;-36
2022/07/25 03:54:00;;;;;;;6.63;5.65;;;;;;;20.94;73.37;100842.94;5092162;28;20069;-36
2022/07/25 03:56:26;;;;;;;8.30;6.05;;;;;;;20.97;72.98;100828.56;5096324;28;20028;-36
2022/07/25 03:58:51;;;;;;;8.45;6.07;;;;;;;20.90;73.46;100834.47;5095842;28;20447;-36
2022/07/25 04:01:16;;;;;;;6.78;5.45;;;;;;;20.99;73.34;100815.38;5096104;28;20036;-36
2022/07/25 04:03:42;;;;;;;6.70;6.00;;;;;;;20.98;74.16;100830.19;5096005;28;20032;-36
2022/07/25 04:06:07;;;;;;;8.43;5.95;;;;;;;20.91;74.70;100816.03;5095583;28;20016;-36
2022/07/25 04:08:32;;;;;;;7.03;6.32;;;;;;;20.89;73.92;100821.03;5096273;28;20020;-36
2022/07/25 04:10:58;;;;;;;8.38;5.78;;;;;;;20.86;74.10;100824.38;5095465;28;20024;-36
2022/07/25 04:13:23;;;;;;;7.03;5.25;;;;;;;20.88;73.48;100813.88;5095780;28;20496;-36
2022/07/25 04:15:49;;;;;;;6.22;5.63;;;;;;;20.87;74.17;100821.31;5095695;28;20028;-36
2022/07/25 04:18:14;;;;;;;5.85;5.20;;;;;;;20.89;73.49;100818.28;5095491;28;20043;-36
2022/07/25 04:20:39;;;;;;;8.45;5.50;;;;;;;20.93;73.06;100805.56;5095621;28;20043;-36
2022/07/25 04:23:05;;;;;;;5.97;5.35;;;;;;;20.93;72.97;100814.59;5096149;28;20065;-36
2022/07/25 04:25:30;;;;;;;8.60;5.95;;;;;;;20.95;72.73;100812.38;5095193;28;20503;-36
2022/07/25 04:27:55;;;;;;;6.95;5.57;;;;;;;20.95;73.34;100808.84;5095418;28;20055;-36
2022/07/25 04:30:21;;;;;;;5.30;4.80;;;;;;;21.06;71.63;100807.53;5094996;28;20035;-36
2022/07/25 04:32:46;;;;;;;6.05;5.13;;;;;;;21.14;71.57;100817.84;5095741;28;20040;-36
2022/07/25 04:35:11;;;;;;;4.88;4.47;;;;;;;21.14;70.84;100823.34;5094879;28;20020;-36
2022/07/25 04:37:37;;;;;;;6.15;4.93;;;;;;;21.29;69.80;100816.75;5095583;28;20066;-36
2022/07/25 04:40:03;;;;;;;5.13;4.47;;;;;;;21.32;69.98;100827.97;5094983;28;20097;-36
2022/07/25 04:42:29;;;;;;;5.90;4.47;;;;;;;21.32;69.70;100819.72;5094935;28;20034;-36
2022/07/25 04:44:54;;;;;;;5.18;4.53;;;;;;;21.31;69.73;100820.03;5095363;28;20099;-36
2022/07/25 04:47:19;;;;;;;6.45;4.60;;;;;;;21.43;68.98;100819.53;5094602;28;20032;-36
2022/07/25 04:49:45;;;;;;;5.80;4.78;;;;;;;21.48;69.22;100822.19;5094698;28;20453;-36
2022/07/25 04:52:10;;;;;;;5.07;4.57;;;;;;;21.48;67.70;100816.69;5094947;28;20384;-36
2022/07/25 04:54:36;;;;;;;4.97;4.25;;;;;;;21.47;66.79;100813.13;5094365;28;20505;-36
2022/07/25 04:57:03;;;;;;;6.00;4.38;;;;;;;21.50;68.01;100811.69;5094376;28;20039;-36
2022/07/25 04:59:28;;;;;;;5.03;4.35;;;;;;;21.46;68.20;100794.97;5094853;28;20077;-36
2022/07/25 05:01:54;;;;;;;6.22;4.47;;;;;;;21.54;67.52;100807.22;5094626;28;20448;-36
2022/07/25 05:04:19;;;;;;;6.57;4.65;;;;;;;21.65;67.55;100811.38;5094513;28;20053;-36
2022/07/25 05:06:44;;;;;;;6.80;4.60;;;;;;;21.55;68.41;100798.66;5094580;28;20070;-36
2022/07/25 05:09:10;;;;;;;6.15;3.85;;;;;;;21.65;67.64;100805.88;5094393;28;20130;-36
2022/07/25 05:11:35;;;;;;;5.32;4.32;;;;;;;21.67;67.46;100800.91;5094310;28;20137;-36
2022/07/25 05:14:00;;;;;;;10.73;4.40;;;;;;;21.71;67.04;100814.84;5094567;28;20028;-36
2022/07/25 05:16:26;;;;;;;4.93;4.40;;;;;;;21.71;67.52;100804.66;5094063;28;20103;-36
2022/07/25 05:18:51;;;;;;;5.13;4.03;;;;;;;21.73;67.32;100810.69;5094229;28;20043;-36
2022/07/25 05:21:16;;;;;;;6.28;4.38;;;;;;;21.73;67.41;100805.19;5093882;28;20115;-36
2022/07/25 05:23:42;;;;;;;4.20;3.78;;;;;;;21.79;67.38;100817.69;5094634;28;20031;-36
2022/07/25 05:26:07;;;;;;;9.05;4.50;;;;;;;21.80;67.29;100811.06;5094469;28;20051;-36
2022/07/25 05:28:32;;;;;;;5.90;4.43;;;;;;;21.81;68.01;100806.38;5093695;28;20384;-36
2022/07/25 05:30:58;;;;;;;8.07;5.03;;;;;;;21.81;67.19;100812.72;5094687;28;20085;-36
2022/07/25 05:33:25;;;;;;;6.03;4.32;;;;;;;21.75;67.53;100799.34;5094887;28;20054;-36
2022/07/25 05:35:50;;;;;;;6.30;4.50;;;;;;;21.82;68.28;100805.28;5093544;28;20027;-36
2022/07/25 05:38:16;;;;;;;8.23;4.72;;;;;;;21.93;67.93;100808.63;5094449;28;20028;-36
2022/07/25 05:40:41;;;;;;;5.80;5.20;;;;;;;21.94;67.36;100810.25;5093585;28;20396;-37
2022/07/25 05:43:06;;;;;;;6.28;5.55;;;;;;;21.93;67.01;100808.63;5094112;28;20063;-36
2022/07/25 05:45:31;;;;;;;5.40;4.78;;;;;;;21.94;67.59;100822.06;5093781;28;20039;-36
2022/07/25 05:47:57;;;;;;;6.10;4.65;;;;;;;21.99;67.52;100807.38;5093846;28;20024;-36
2022/07/25 05:50:22;;;;;;;5.32;4.55;;;;;;;22.02;67.89;100815.03;5093547;28;20028;-36
2022/07/25 05:52:48;;;;;;;7.75;5.07;;;;;;;22.04;67.90;100815.53;5093410;28;20423;-36
2022/07/25 05:55:13;;;;;;;6.97;5.25;;;;;;;22.05;67.17;100811.66;5093475;28;20440;-36
2022/07/25 05:57:39;;;;;;;8.88;5.32;;;;;;;21.98;68.10;100795.56;5093513;28;20028;-36
2022/07/25 06:00:05;;;;;;;5.55;5.03;;;;;;;22.00;67.56;100814.50;5094115;28;20053;-36
2022/07/25 06:02:30;;;;;;;10.98;5.38;;;;;;;22.00;67.60;100812.56;5093522;28;20043;-36
2022/07/25 06:04:56;;;;;;;10.13;5.70;;;;;;;22.07;67.92;100831.44;5093213;28;20046;-36
2022/07/25 06:07:21;;;;;;;8.35;5.35;;;;;;;22.07;67.97;100832.25;5093774;28;20028;-36
2022/07/25 06:09:46;;;;;;;8.27;5.60;;;;;;;22.10;67.54;100848.16;5093569;28;20020;-36
2022/07/25 06:12:12;;;;;;;7.60;5.70;;;;;;;22.07;67.63;100839.72;5092979;28;20422;-36
2022/07/25 06:14:38;;;;;;;8.75;5.43;;;;;;;22.06;67.95;100841.66;5093223;28;20133;-36
2022/07/25 06:17:03;;;;;;;8.98;6.07;;;;;;;22.04;68.50;100843.06;5093003;28;20059;-36
2022/07/25 06:19:29;;;;;;;12.30;6.30;;;;;;;22.08;68.79;100836.63;5093201;28;20110;-36
2022/07/25 06:21:54;;;;;;;7.10;5.55;;;;;;;22.04;68.43;100846.63;5093925;28;20056;-37
2022/07/25 06:24:19;;;;;;;6.68;5.45;;;;;;;22.09;68.10;100834.69;5093377;28;20107;-36
2022/07/25 06:26:45;;;;;;;10.40;5.22;;;;;;;22.03;67.89;100827.69;5093385;28;20035;-36
2022/07/25 06:29:11;;;;;;;9.88;5.43;;;;;;;22.02;67.75;100829.63;5093593;28;20059;-36
2022/07/25 06:31:36;;;;;;;6.10;4.97;;;;;;;22.08;67.71;100842.16;5092941;28;20087;-36
2022/07/25 06:34:02;;;;;;;6.68;5.53;;;;;;;22.12;67.43;100838.81;5093067;28;20032;-36
2022/07/25 06:36:27;;;;;;;8.32;5.20;;;;;;;22.08;67.64;100839.38;5098988;28;20028;-36
2022/07/25 06:38:53;;;;;;;9.13;5.25;;;;;;;22.09;67.36;100846.53;5113361;28;20032;-36
2022/07/25 06:41:18;;;;;;;7.85;4.90;;;;;;;22.10;67.22;100852.84;5113647;28;20446;-36
2022/07/25 06:43:44;;;;;;;6.05;4.30;;;;;;;22.13;67.58;100835.75;5113252;28;20430;-36
2022/07/25 06:46:09;;;;;;;10.70;5.07;;;;;;;22.15;67.47;100838.19;5114002;28;20065;-36
2022/07/25 06:48:35;;;;;;;7.88;4.97;;;;;;;22.18;67.38;100837.56;5113694;28;20028;-36
2022/07/25 06:51:00;;;;;;;6.18;4.43;;;;;;;22.23;67.37;100840.22;5113005;28;20432;-36
2022/07/25 06:53:26;;;;;;;6.32;4.40;;;;;;;22.32;67.11;100846.63;5114061;28;20023;-36
2022/07/25 06:55:51;;;;;;;5.75;4.90;;;;;;;22.34;66.73;100842.41;5113205;28;20028;-36
2022/07/25 06:58:16;;;;;;;5.43;3.88;;;;;;;22.36;66.34;100839.38;5112816;28;20124;-36
2022/07/25 07:00:42;;;;;;;6.90;4.63;;;;;;;22.37;66.16;100843.75;5112681;28;20035;-36
2022/07/25 07:03:07;;;;;;;4.75;3.90;;;;;;;22.30;66.43;100844.19;5112983;28;20032;-36
2022/07/25 07:05:35;;;;;;;5.03;3.78;;;;;;;22.29;66.87;100841.72;5113462;28;20019;-36
2022/07/25 07:08:00;;;;;;;5.95;3.78;;;;;;;22.27;66.24;100833.78;5113443;28;20444;-36
2022/07/25 07:10:26;;;;;;;6.53;3.70;;;;;;;22.32;67.04;100830.91;5112811;28;20066;-36
2022/07/25 07:13:04;;;;;;;6.78;3.80;;;;;;;22.41;66.77;100841.19;5113184;28;20024;-36
2022/07/25 07:15:29;;;;;;;5.45;3.22;;;;;;;22.38;66.38;100836.31;5112859;28;20030;-36
2022/07/25 07:17:54;;;;;;;7.85;3.28;;;;;;;22.39;67.03;100840.69;5112854;28;20387;-36
2022/07/25 07:20:20;;;;;;;5.65;2.90;;;;;;;22.53;66.35;100841.44;5112766;28;20031;-36
2022/07/25 07:22:47;;;;;;;5.50;2.75;;;;;;;22.63;65.62;100838.44;5112862;28;20027;-36
2022/07/25 07:25:15;;;;;;;9.05;3.00;;;;;;;22.74;65.44;100844.53;5111492;28;20024;-36
2022/07/25 07:27:41;;;;;;;6.47;2.60;;;;;;;22.81;65.08;100839.41;5113528;28;20027;-36
2022/07/25 07:30:08;;;;;;;4.95;2.03;;;;;;;22.80;65.06;100827.56;5114997;28;20019;-36
2022/07/25 07:32:33;;;;;;;6.63;2.10;;;;;;;22.92;65.49;100840.81;5116914;28;20392;-36
2022/07/25 07:34:58;;;;;;;6.15;2.25;;;;;;;23.01;65.53;100838.13;5116853;28;20027;-36
2022/07/25 07:37:24;;;;;;;2.90;1.73;;;;;;;22.95;64.65;100828.34;5117134;27;20512;-36
2022/07/25 07:39:49;;;;;;;7.78;1.63;;;;;;;23.03;64.73;100842.19;5116599;28;20027;-36
2022/07/25 07:42:14;;;;;;;3.72;1.73;;;;;;;23.03;64.55;100841.38;5116284;27;20038;-36
2022/07/25 07:44:40;;;;;;;5.15;1.80;;;;;;;22.96;64.70;100839.06;5116518;28;20035;-36
2022/07/25 07:47:05;;;;;;;3.20;1.55;;;;;;;23.05;65.45;100847.41;5117162;28;20055;-36
2022/07/25 07:49:30;;;;;;;4.93;1.83;;;;;;;23.05;65.11;100845.44;5116377;28;20077;-36
2022/07/25 07:51:56;;;;;;;4.75;1.50;;;;;;;23.09;65.77;100845.66;5116107;28;20383;-36
2022/07/25 07:57:05;;;;;;;4.65;1.40;;;;;;;23.14;65.86;100851.03;5116263;28;20129;-36
2022/07/25 07:59:30;;;;;;;3.85;1.50;;;;;;;23.27;65.89;100846.53;5116150;28;20055;-36
2022/07/25 08:01:55;;;;;;;5.25;1.65;;;;;;;23.34;66.24;100844.97;5116257;28;20035;-37
2022/07/25 08:04:21;;;;;;;3.13;1.10;;;;;;;23.58;65.76;100858.41;5116200;28;20034;-36
2022/07/25 08:06:46;;;;;;;4.60;1.38;;;;;;;23.64;65.45;100848.06;5116888;28;20023;-36
2022/07/25 08:09:11;;;;;;;4.78;1.45;;;;;;;23.68;65.46;100856.53;5116243;28;20147;-36
2022/07/25 08:11:37;;;;;;;4.50;1.30;;;;;;;23.79;66.16;100863.38;5116236;28;20106;-36
2022/07/25 08:14:04;;;;;;;2.75;1.00;;;;;;;23.90;65.73;100860.00;5115825;28;20066;-36
2022/07/25 08:16:29;;;;;;;6.68;1.45;;;;;;;23.99;65.70;100859.22;5116392;28;20032;-36
2022/07/25 08:18:54;;;;;;;4.93;1.40;;;;;;;24.12;65.95;100847.22;5115793;28;20024;-36
2022/07/25 08:21:20;;;;;;;5.10;1.20;;;;;;;24.06;65.06;100843.81;5115652;28;20119;-36
2022/07/25 08:23:46;;;;;;;4.40;1.02;;;;;;;24.05;64.89;100866.22;5115655;28;20027;-36
2022/07/25 08:26:13;;;;;;;3.70;0.90;;;;;;;24.03;65.67;100851.91;5116359;28;20372;-36
2022/07/25 08:28:39;;;;;;;4.47;1.38;;;;;;;23.94;65.76;100856.59;5115294;28;20492;-37
2022/07/25 08:31:04;;;;;;;3.25;1.00;;;;;;;23.93;66.06;100857.75;5115397;28;20020;-36
2022/07/25 08:33:30;;;;;;;2.75;1.00;;;;;;;23.80;66.36;100859.47;5116006;27;20063;-36
2022/07/25 08:35:57;;;;;;;2.97;0.90;;;;;;;23.81;66.31;100852.81;5115412;28;20096;-36
2022/07/25 08:38:24;;;;;;;2.60;1.00;;;;;;;23.92;66.42;100853.34;5115796;28;20023;-36
2022/07/25 08:40:51;;;;;;;4.40;1.15;;;;;;;23.98;66.16;100849.31;5115616;27;20043;-36
2022/07/25 08:43:17;;;;;;;3.72;1.13;;;;;;;24.14;65.67;100861.53;5115564;28;20032;-36
2022/07/25 08:45:45;;;;;;;3.50;0.93;;;;;;;24.20;65.32;100857.47;5115518;28;20023;-36
2022/07/25 08:48:10;;;;;;;3.33;0.88;;;;;;;24.44;64.86;100856.22;5115475;28;20030;-36
2022/07/25 08:50:37;;;;;;;3.67;1.20;;;;;;;24.62;64.03;100866.97;5114669;28;20028;-37
2022/07/25 08:53:03;;;;;;;3.92;0.73;;;;;;;24.70;62.48;100845.19;5115815;28;20027;-36
2022/07/25 08:55:28;;;;;;;2.33;0.93;;;;;;;24.77;63.12;100860.13;5114650;28;20043;-36
2022/07/25 08:57:54;;;;;;;4.25;1.00;;;;;;;24.69;62.57;100863.72;5115197;28;20160;-36
2022/07/25 09:00:25;;;;;;;2.42;0.80;;;;;;;24.52;62.27;100863.72;5114669;28;20093;-36
2022/07/25 09:02:59;;;;;;;3.22;0.90;;;;;;;24.54;62.74;100858.66;5114989;28;20035;-37
2022/07/25 09:05:26;;;;;;;3.58;0.82;;;;;;;24.47;62.19;100884.03;5115379;28;20031;-37
2022/07/25 09:07:53;;;;;;;3.67;1.00;;;;;;;24.38;62.59;100875.72;5115091;28;20106;-36
2022/07/25 09:10:21;;;;;;;2.75;1.20;;;;;;;24.45;62.93;100874.44;5114482;27;20483;-37
2022/07/25 09:12:53;;;;;;;3.25;0.90;;;;;;;24.62;61.47;100868.94;5115026;28;20031;-36
2022/07/25 09:15:39;;;;;;;5.15;1.25;;;;;;;24.69;61.34;100869.25;5114925;28;20020;-36
2022/07/25 09:18:07;;;;;;;3.28;1.00;;;;;;;24.80;61.05;100870.56;5114717;28;20027;-36
2022/07/25 09:20:46;;;;;;;4.90;0.98;;;;;;;25.07;60.78;100868.59;5114482;28;20027;-37
2022/07/25 09:23:14;;;;;;;2.75;1.00;;;;;;;25.18;59.94;100880.94;5114176;28;20504;-37
2022/07/25 09:25:40;;;;;;;3.90;1.10;;;;;;;25.34;60.10;100872.94;5114477;28;20057;-37
2022/07/25 09:28:17;;;;;;;5.20;1.40;;;;;;;25.58;59.60;100878.72;5114715;28;20099;-36
2022/07/25 09:30:57;;;;;;;3.05;1.20;;;;;;;25.64;59.22;100874.63;5114104;28;20042;-37
2022/07/25 09:33:23;;;;;;;3.45;1.25;;;;;;;25.64;57.99;100882.13;5114903;28;20455;-37
2022/07/25 09:35:49;;;;;;;4.30;1.40;;;;;;;25.61;58.58;100889.13;5113935;28;20027;-36
2022/07/25 09:38:16;;;;;;;4.15;1.48;;;;;;;25.71;57.81;100890.72;5114174;28;20034;-36
2022/07/25 09:41:01;;;;;;;5.70;2.45;;;;;;;25.82;57.29;100899.53;5114175;28;20080;-37
2022/07/25 09:43:41;;;;;;;4.63;1.33;;;;;;;25.91;56.57;100903.88;5113906;28;20499;-36
2022/07/25 09:46:07;;;;;;;5.10;1.85;;;;;;;25.91;55.31;100897.50;5114818;27;20024;-37
2022/07/25 09:48:34;;;;;;;5.28;1.50;;;;;;;26.04;55.72;100895.66;5114403;28;20064;-37
2022/07/25 09:50:59;;;;;;;5.38;1.67;;;;;;;25.99;55.94;100893.06;5114389;28;20027;-37
2022/07/25 09:53:25;;;;;;;4.45;1.10;;;;;;;26.17;56.87;100900.16;5113136;28;20039;-35
2022/07/25 09:55:55;;;;;;;4.88;1.25;;;;;;;26.34;55.47;100896.44;5113817;28;20050;-35
2022/07/25 09:58:22;;;;;;;5.55;1.27;;;;;;;26.53;55.48;100896.84;5114074;28;20039;-36
2022/07/25 10:00:49;;;;;;;5.18;1.60;;;;;;;26.48;54.80;100899.81;5113815;27;20313;-36
2022/07/25 10:03:36;;;;;;;5.57;1.60;;;;;;;26.58;54.79;100902.19;5113783;28;20122;-36
2022/07/25 10:06:16;;;;;;;4.35;1.48;;;;;;;26.66;54.60;100900.50;5114432;28;20049;-36
2022/07/25 10:08:42;;;;;;;5.50;1.77;;;;;;;26.83;54.38;100891.22;5114068;28;20023;-36
2022/07/25 10:11:18;;;;;;;4.28;1.52;;;;;;;26.99;53.95;100891.41;5113355;28;20129;-36
2022/07/25 10:13:44;;;;;;;2.90;1.48;;;;;;;27.20;53.59;100904.13;5114177;28;20066;-36
2022/07/25 10:16:21;;;;;;;4.13;1.45;;;;;;;27.43;53.70;100907.31;5113336;28;20059;-36
2022/07/25 10:18:52;;;;;;;3.60;1.42;;;;;;;27.48;53.13;100894.38;5113994;28;20082;-36
2022/07/25 10:21:18;;;;;;;6.95;1.65;;;;;;;27.62;51.81;100903.16;5113228;28;20028;-36
2022/07/25 10:23:45;;;;;;;4.05;1.50;;;;;;;27.74;53.36;100899.66;5114026;28;20032;-35
2022/07/25 10:26:18;;;;;;;3.55;1.23;;;;;;;27.93;51.54;100897.91;5113947;28;20034;-36
2022/07/25 10:28:49;;;;;;;4.15;1.00;;;;;;;27.70;51.41;100891.16;5113548;28;20424;-36
2022/07/25 10:31:26;;;;;;;3.15;1.50;;;;;;;27.54;50.41;100895.78;5113834;28;20068;-37
2022/07/25 10:34:01;;;;;;;4.55;1.27;;;;;;;27.49;50.15;100904.31;5113806;28;20142;-36
2022/07/25 10:36:40;;;;;;;4.28;1.20;;;;;;;27.41;49.31;100904.06;5113876;28;20024;-36
2022/07/25 10:39:08;;;;;;;4.28;1.25;;;;;;;27.41;49.25;100908.81;5113830;28;20028;-36
2022/07/25 10:41:38;;;;;;;3.35;1.42;;;;;;;27.42;49.98;100902.91;5113229;28;20028;-36
2022/07/25 10:44:09;;;;;;;1.55;0.82;;;;;;;27.58;49.00;100913.38;5113339;28;20032;-36
2022/07/25 10:46:35;;;;;;;3.17;1.30;;;;;;;27.55;48.84;100902.94;5113314;28;20498;-36
2022/07/25 10:49:02;;;;;;;3.10;1.20;;;;;;;27.63;48.54;100911.19;5113296;28;20031;-36
2022/07/25 10:51:32;;;;;;;3.80;1.45;;;;;;;27.51;48.22;100902.00;5113435;28;20028;-36
2022/07/25 10:53:57;;;;;;;4.43;1.17;;;;;;;27.78;48.19;100912.50;5113174;28;20020;-36
2022/07/25 10:56:26;;;;;;;3.05;0.90;;;;;;;27.78;47.37;100906.94;5113200;28;20490;-36
2022/07/25 10:58:52;;;;;;;6.85;1.42;;;;;;;27.65;47.24;100924.72;5113080;28;20039;-36
2022/07/25 11:01:25;;;;;;;7.93;1.58;;;;;;;27.60;48.18;100920.19;5113804;28;20448;-36
2022/07/25 11:03:52;;;;;;;2.70;1.30;;;;;;;27.37;48.04;100941.19;5115128;28;20028;-36
2022/07/25 11:06:34;;;;;;;5.68;1.83;;;;;;;27.32;49.18;100933.88;5117071;28;20028;-36
2022/07/25 11:09:00;;;;;;;3.97;1.20;;;;;;;27.19;50.77;100941.38;5117996;28;20537;-36
2022/07/25 11:11:34;;;;;;;5.15;1.42;;;;;;;27.04;50.31;100938.38;5117151;28;20049;-36
2022/07/25 11:13:59;;;;;;;3.30;1.33;;;;;;;27.11;49.58;100947.00;5099318;28;20020;-36
2022/07/25 11:16:25;;;;;;;4.32;1.30;;;;;;;26.94;50.11;100951.53;5117011;28;20047;-36
2022/07/25 11:18:53;;;;;;;3.08;1.15;;;;;;;26.60;48.93;100952.59;5117260;28;20072;-37
2022/07/25 11:21:18;;;;;;;3.92;1.13;;;;;;;26.39;49.03;100949.75;5117228;28;20038;-36
2022/07/25 11:23:49;;;;;;;4.10;1.50;;;;;;;26.38;49.24;100956.44;5116707;28;20024;-36
2022/07/25 11:26:15;;;;;;;3.55;1.30;;;;;;;26.18;49.47;100940.56;5117442;28;20027;-36